createdAt,value
2022-08-03T00:01:43.119Z,8.10
2022-08-03T00:04:11.303Z,9.13
2022-08-03T00:06:39.133Z,8.70
2022-08-03T00:09:08.155Z,8.10
2022-08-03T00:11:37.161Z,8.68
2022-08-03T00:14:07.984Z,8.70
2022-08-03T00:16:36.106Z,7.45
2022-08-03T00:19:04.378Z,8.60
2022-08-03T00:21:31.834Z,7.95
2022-08-03T00:23:59.107Z,8.68
2022-08-03T00:26:26.351Z,9.20
2022-08-03T00:28:53.854Z,9.93
2022-08-03T00:31:27.759Z,7.63
2022-08-03T00:34:08.570Z,9.27
2022-08-03T00:36:35.791Z,8.70
2022-08-03T00:39:03.107Z,8.23
2022-08-03T00:41:30.630Z,9.75
2022-08-03T00:43:57.851Z,9.32
2022-08-03T00:46:25.067Z,11.50
2022-08-03T00:48:53.446Z,9.48
2022-08-03T00:51:22.355Z,8.88
2022-08-03T00:53:51.039Z,9.95
2022-08-03T00:56:18.909Z,10.05
2022-08-03T00:58:47.585Z,9.25
2022-08-03T01:01:15.407Z,7.68
2022-08-03T01:03:43.150Z,9.57
2022-08-03T01:06:23.147Z,15.30
2022-08-03T01:09:04.717Z,13.15
2022-08-03T01:11:59.819Z,10.90
2022-08-03T01:14:46.041Z,10.27
2022-08-03T01:17:49.144Z,9.25
2022-08-03T01:20:20.928Z,9.63
2022-08-03T01:23:28.991Z,8.90
2022-08-03T01:26:20.672Z,8.43
2022-08-03T01:29:37.992Z,7.85
2022-08-03T01:33:02.785Z,10.02
2022-08-03T01:35:29.409Z,10.10
2022-08-03T01:38:04.765Z,9.68
2022-08-03T01:40:39.606Z,10.18
2022-08-03T01:43:12.899Z,12.27
2022-08-03T01:45:44.023Z,11.45
2022-08-03T01:48:17.720Z,9.95
2022-08-03T01:50:47.834Z,9.10
2022-08-03T01:53:17.539Z,10.07
2022-08-03T01:55:54.167Z,8.98
2022-08-03T01:58:24.669Z,8.43
2022-08-03T02:00:58.279Z,7.80
2022-08-03T02:03:28.977Z,11.23
2022-08-03T02:07:00.215Z,14.38
2022-08-03T02:08:49.390Z,19.63
2022-08-03T02:11:17.163Z,15.52
2022-08-03T02:13:47.262Z,15.57
2022-08-03T02:16:15.015Z,15.27
2022-08-03T02:18:43.414Z,14.82
2022-08-03T02:21:12.249Z,13.65
2022-08-03T02:24:00.042Z,19.17
2022-08-03T02:26:31.013Z,22.70
2022-08-03T02:29:19.051Z,22.08
2022-08-03T02:31:49.352Z,37.67
2022-08-03T02:34:21.189Z,25.80
2022-08-03T02:36:53.800Z,30.48
2022-08-03T02:39:26.395Z,21.98
2022-08-03T02:42:02.319Z,24.13
2022-08-03T02:44:33.709Z,17.70
2022-08-03T02:47:11.022Z,20.85
2022-08-03T02:49:51.472Z,20.55
2022-08-03T02:52:25.530Z,25.15
2022-08-03T02:54:57.848Z,20.75
2022-08-03T02:57:29.933Z,19.95
2022-08-03T03:00:00.179Z,19.75
2022-08-03T03:02:30.062Z,19.85
2022-08-03T03:05:52.448Z,17.35
2022-08-03T03:07:52.061Z,16.83
2022-08-03T03:10:24.938Z,18.92
2022-08-03T03:12:58.539Z,21.63
2022-08-03T03:15:29.207Z,28.90
2022-08-03T03:17:58.206Z,23.00
2022-08-03T03:20:30.186Z,20.60
2022-08-03T03:23:02.741Z,19.50
2022-08-03T03:25:34.463Z,26.33
2022-08-03T03:28:03.043Z,25.40
2022-08-03T03:30:30.956Z,25.58
2022-08-03T03:32:59.676Z,21.80
2022-08-03T03:35:28.303Z,23.88
2022-08-03T03:37:56.769Z,23.73
2022-08-03T03:40:25.030Z,20.50
2022-08-03T03:42:52.649Z,22.70
2022-08-03T03:45:21.803Z,23.35
2022-08-03T03:47:49.598Z,27.50
2022-08-03T03:50:19.542Z,22.50
2022-08-03T03:52:46.991Z,19.35
2022-08-03T03:55:19.341Z,17.08
2022-08-03T03:57:46.743Z,14.95
2022-08-03T04:00:16.924Z,16.63
2022-08-03T04:02:45.958Z,16.90
2022-08-03T04:05:34.201Z,17.08
2022-08-03T04:08:25.272Z,16.58
2022-08-03T04:11:29.368Z,16.80
2022-08-03T04:14:13.315Z,14.50
2022-08-03T04:16:49.205Z,14.63
2022-08-03T04:19:26.978Z,12.10
2022-08-03T04:22:00.944Z,14.27
2022-08-03T04:24:48.325Z,16.92
2022-08-03T04:27:22.017Z,16.50
2022-08-03T04:29:55.085Z,20.95
2022-08-03T04:32:28.728Z,16.60
2022-08-03T04:34:56.534Z,12.18
2022-08-03T04:37:40.158Z,10.73
2022-08-03T04:40:13.777Z,11.82
2022-08-03T04:42:43.174Z,13.73
2022-08-03T04:45:15.067Z,12.38
2022-08-03T04:47:44.592Z,15.88
2022-08-03T04:50:15.023Z,15.25
2022-08-03T04:52:45.269Z,17.98
2022-08-03T04:55:12.493Z,32.42
2022-08-03T04:57:39.730Z,26.85
2022-08-03T05:00:08.045Z,21.40
2022-08-03T05:02:35.546Z,20.17
2022-08-03T05:05:09.503Z,22.75
2022-08-03T05:07:39.215Z,20.75
2022-08-03T05:10:14.795Z,18.52
2022-08-03T05:12:45.892Z,18.45
2022-08-03T05:15:13.675Z,15.85
2022-08-03T05:17:41.379Z,16.00
2022-08-03T05:20:10.117Z,19.85
2022-08-03T05:22:37.478Z,19.50
2022-08-03T05:25:05.336Z,16.73
2022-08-03T05:27:32.738Z,16.25
2022-08-03T05:30:30.671Z,16.02
2022-08-03T05:32:47.485Z,18.60
2022-08-03T05:36:00.784Z,20.90
2022-08-03T05:38:03.533Z,44.28
2022-08-03T05:40:32.006Z,34.85
2022-08-03T05:43:00.109Z,26.90
2022-08-03T05:45:28.522Z,28.15
2022-08-03T05:47:56.499Z,20.55
2022-08-03T05:50:24.055Z,24.15
2022-08-03T05:52:51.534Z,24.70
2022-08-03T05:55:19.175Z,22.90
2022-08-03T05:57:47.742Z,17.15
2022-08-03T06:00:17.509Z,17.10
2022-08-03T06:02:46.235Z,17.15
2022-08-03T06:05:13.616Z,17.65
2022-08-03T06:07:41.137Z,19.65
2022-08-03T06:10:37.355Z,19.45
2022-08-03T06:12:56.716Z,14.93
2022-08-03T06:15:24.006Z,18.70
2022-08-03T06:18:01.453Z,17.30
2022-08-03T06:20:30.362Z,17.80
2022-08-03T06:23:00.419Z,12.80
2022-08-03T06:25:29.389Z,12.05
2022-08-03T06:27:57.142Z,13.00
2022-08-03T06:30:24.783Z,12.50
2022-08-03T06:32:52.532Z,13.32
2022-08-03T06:35:20.828Z,14.30
2022-08-03T06:37:51.880Z,30.55
2022-08-03T06:40:29.222Z,28.58
2022-08-03T06:42:58.270Z,27.25
2022-08-03T06:45:25.933Z,23.15
2022-08-03T06:48:11.960Z,24.40
2022-08-03T06:50:41.772Z,23.02
2022-08-03T06:53:15.627Z,21.42
2022-08-03T06:55:53.936Z,18.08
2022-08-03T06:58:22.618Z,18.08
2022-08-03T07:00:50.255Z,14.95
2022-08-03T07:03:17.765Z,15.23
2022-08-03T07:05:48.332Z,12.73
2022-08-03T07:08:15.929Z,14.13
2022-08-03T07:10:44.195Z,12.80
2022-08-03T07:13:11.753Z,11.30
2022-08-03T07:15:55.684Z,10.30
2022-08-03T07:18:29.844Z,10.88
2022-08-03T07:21:00.281Z,11.32
2022-08-03T07:23:27.660Z,11.70
2022-08-03T07:25:54.932Z,11.27
2022-08-03T07:28:22.306Z,11.80
2022-08-03T07:30:49.847Z,12.15
2022-08-03T07:33:17.194Z,11.82
2022-08-03T07:35:44.469Z,11.70
2022-08-03T07:38:11.916Z,9.68
2022-08-03T07:40:44.416Z,14.35
2022-08-03T07:43:13.609Z,13.15
2022-08-03T07:45:40.979Z,11.23
2022-08-03T07:48:12.193Z,9.15
2022-08-03T07:50:41.204Z,8.55
2022-08-03T07:53:08.828Z,10.98
2022-08-03T07:55:36.175Z,10.35
2022-08-03T07:58:12.622Z,10.73
2022-08-03T08:00:40.008Z,12.52
2022-08-03T08:03:08.250Z,12.27
2022-08-03T08:05:35.463Z,14.98
2022-08-03T08:08:04.212Z,10.60
2022-08-03T08:10:33.346Z,8.40
2022-08-03T08:13:01.896Z,15.40
2022-08-03T08:15:30.294Z,11.48
2022-08-03T08:18:01.572Z,10.30
2022-08-03T08:20:34.974Z,8.27
2022-08-03T08:23:19.248Z,7.97
2022-08-03T08:25:56.283Z,8.85
2022-08-03T08:28:32.819Z,12.32
2022-08-03T08:31:02.486Z,6.85
2022-08-03T08:33:42.509Z,9.68
2022-08-03T08:36:18.166Z,7.35
2022-08-03T08:38:45.713Z,8.07
2022-08-03T08:41:15.293Z,7.97
2022-08-03T08:43:43.794Z,7.88
2022-08-03T08:46:22.947Z,6.55
2022-08-03T08:48:52.505Z,6.57
2022-08-03T08:51:22.507Z,7.05
2022-08-03T08:53:54.287Z,7.40
2022-08-03T08:56:26.242Z,6.32
2022-08-03T08:58:59.249Z,6.90
2022-08-03T09:01:27.756Z,6.88
2022-08-03T09:03:55.895Z,7.55
2022-08-03T09:06:24.759Z,7.43
2022-08-03T09:08:52.610Z,7.18
2022-08-03T09:11:57.652Z,6.30
2022-08-03T09:14:37.119Z,5.30
2022-08-03T09:17:05.308Z,5.57
2022-08-03T09:19:34.877Z,5.53
2022-08-03T09:22:16.802Z,5.05
2022-08-03T09:25:27.198Z,5.53
2022-08-03T09:27:54.706Z,5.10
2022-08-03T09:30:34.530Z,5.00
2022-08-03T09:33:11.245Z,4.93
2022-08-03T09:35:57.461Z,4.25
2022-08-03T09:38:28.857Z,4.30
2022-08-03T09:41:00.244Z,3.88
2022-08-03T09:43:28.818Z,3.50
2022-08-03T09:46:07.481Z,3.60
2022-08-03T09:48:36.921Z,3.55
2022-08-03T09:51:12.809Z,3.03
2022-08-03T09:53:58.948Z,3.65
2022-08-03T09:56:41.707Z,7.55
2022-08-03T09:59:11.645Z,6.30
2022-08-03T10:01:41.961Z,3.88
2022-08-03T10:04:15.141Z,3.40
2022-08-03T10:06:44.317Z,3.17
2022-08-03T10:09:17.222Z,3.20
2022-08-03T10:11:47.041Z,2.97
2022-08-03T10:14:23.564Z,4.10
2022-08-03T10:16:50.914Z,3.65
2022-08-03T10:19:18.421Z,2.90
2022-08-03T10:21:57.026Z,3.20
2022-08-03T10:24:29.575Z,2.70
2022-08-03T10:27:08.063Z,3.00
2022-08-03T10:29:41.312Z,2.50
2022-08-03T10:32:22.717Z,2.80
2022-08-03T10:34:59.874Z,5.13
2022-08-03T10:37:34.636Z,10.20
2022-08-03T10:40:04.269Z,4.78
2022-08-03T10:42:32.101Z,2.70
2022-08-03T10:45:18.778Z,3.55
2022-08-03T10:47:49.513Z,3.17
2022-08-03T10:50:18.346Z,3.10
2022-08-03T10:52:55.275Z,3.03
2022-08-03T10:55:59.835Z,2.95
2022-08-03T10:58:37.962Z,6.68
2022-08-03T11:01:58.903Z,3.00
2022-08-03T11:04:30.320Z,2.90
2022-08-03T11:07:16.900Z,3.58
2022-08-03T11:09:51.200Z,3.40
2022-08-03T11:12:30.735Z,3.40
2022-08-03T11:15:05.095Z,3.92
2022-08-03T11:17:46.717Z,14.48
2022-08-03T11:20:52.903Z,6.35
2022-08-03T11:24:03.338Z,12.77
2022-08-03T11:26:29.476Z,7.72
2022-08-03T11:29:32.005Z,6.72
2022-08-03T11:31:59.290Z,5.30
2022-08-03T11:34:26.908Z,5.32
2022-08-03T11:37:22.336Z,5.90
2022-08-03T11:39:54.591Z,5.82
2022-08-03T11:42:24.987Z,5.47
2022-08-03T11:45:00.665Z,6.18
2022-08-03T11:47:30.284Z,5.80
2022-08-03T11:50:02.077Z,8.25
2022-08-03T11:52:38.360Z,11.60
2022-08-03T11:55:11.812Z,7.75
2022-08-03T11:59:01.264Z,6.20
2022-08-03T12:00:32.787Z,5.55
2022-08-03T12:03:11.280Z,6.43
2022-08-03T12:05:41.583Z,6.43
2022-08-03T12:08:41.006Z,6.72
2022-08-03T12:11:11.739Z,7.70
2022-08-03T12:14:45.122Z,8.48
2022-08-03T12:16:31.807Z,7.88
2022-08-03T12:19:06.805Z,7.53
2022-08-03T12:21:34.605Z,8.50
2022-08-03T12:24:05.298Z,7.95
2022-08-03T12:26:58.518Z,8.02
2022-08-03T12:29:27.623Z,7.32
2022-08-03T12:31:55.983Z,7.90
2022-08-03T12:34:23.702Z,7.80
2022-08-03T12:36:56.933Z,8.50
2022-08-03T12:39:26.714Z,8.50
2022-08-03T12:41:56.462Z,8.88
2022-08-03T12:44:35.820Z,8.38
2022-08-03T12:47:06.824Z,9.02
2022-08-03T12:49:48.444Z,8.65
2022-08-03T12:52:18.071Z,8.30
2022-08-03T12:55:00.098Z,9.30
2022-08-03T12:57:42.171Z,8.82
2022-08-03T13:00:21.448Z,7.93
2022-08-03T13:03:38.851Z,8.90
2022-08-03T13:05:57.556Z,8.55
2022-08-03T13:08:26.009Z,9.05
2022-08-03T13:10:53.911Z,7.68
2022-08-03T13:13:39.648Z,8.07
2022-08-03T13:16:07.585Z,9.48
2022-08-03T13:18:34.788Z,12.35
2022-08-03T13:21:02.324Z,9.48
2022-08-03T13:23:30.013Z,8.77
2022-08-03T13:25:57.205Z,8.65
2022-08-03T13:28:24.454Z,9.13
2022-08-03T13:30:51.982Z,8.15
2022-08-03T13:33:19.349Z,10.30
2022-08-03T13:35:46.607Z,8.25
2022-08-03T13:38:15.356Z,9.90
2022-08-03T13:40:44.560Z,8.40
2022-08-03T13:43:13.373Z,9.52
2022-08-03T13:45:40.770Z,7.90
2022-08-03T13:48:08.004Z,9.35
2022-08-03T13:50:37.605Z,8.88
2022-08-03T13:53:08.732Z,11.05
2022-08-03T13:55:36.048Z,9.95
2022-08-03T13:58:07.504Z,8.68
2022-08-03T14:00:35.326Z,13.77
2022-08-03T14:03:12.241Z,9.18
2022-08-03T14:05:43.227Z,9.48
2022-08-03T14:08:11.420Z,9.02
2022-08-03T14:10:42.592Z,9.65
2022-08-03T14:13:16.627Z,8.40
2022-08-03T14:15:50.942Z,8.43
2022-08-03T14:18:29.190Z,9.13
2022-08-03T14:21:06.729Z,8.98
2022-08-03T14:23:37.938Z,8.77
2022-08-03T14:26:09.606Z,8.82
2022-08-03T14:28:37.091Z,8.98
2022-08-03T14:31:08.234Z,7.85
2022-08-03T14:33:42.982Z,8.80
2022-08-03T14:36:10.186Z,8.40
2022-08-03T14:38:37.401Z,12.88
2022-08-03T14:41:05.000Z,9.18
2022-08-03T14:43:34.017Z,9.52
2022-08-03T14:46:01.728Z,8.18
2022-08-03T14:50:29.465Z,10.73
2022-08-03T14:51:16.544Z,8.80
2022-08-03T14:53:44.049Z,8.60
2022-08-03T14:56:11.300Z,8.75
2022-08-03T14:58:38.802Z,10.00
2022-08-03T15:02:06.230Z,8.88
2022-08-03T15:03:54.778Z,8.20
2022-08-03T15:06:22.240Z,8.75
2022-08-03T15:09:06.267Z,8.77
2022-08-03T15:11:37.521Z,8.45
2022-08-03T15:14:09.000Z,8.43
2022-08-03T15:16:38.107Z,9.07
2022-08-03T15:19:59.585Z,7.30
2022-08-03T15:21:53.572Z,6.93
2022-08-03T15:24:21.100Z,7.93
2022-08-03T15:26:48.313Z,8.50
2022-08-03T15:30:06.901Z,11.30
2022-08-03T15:32:09.156Z,9.63
2022-08-03T15:34:36.962Z,13.45
2022-08-03T15:37:16.255Z,9.93
2022-08-03T15:40:00.830Z,9.35
2022-08-03T15:42:30.346Z,8.77
2022-08-03T15:44:57.763Z,9.07
2022-08-03T15:47:25.710Z,9.48
2022-08-03T15:49:55.768Z,8.82
2022-08-03T15:52:23.162Z,8.15
2022-08-03T15:54:50.417Z,9.02
2022-08-03T15:57:17.959Z,8.27
2022-08-03T15:59:45.234Z,8.00
2022-08-03T16:02:12.481Z,8.80
2022-08-03T16:04:39.948Z,8.15
2022-08-03T16:07:07.201Z,8.75
2022-08-03T16:09:43.132Z,7.95
2022-08-03T16:12:16.426Z,7.70
2022-08-03T16:14:53.821Z,7.63
2022-08-03T16:17:22.631Z,8.30
2022-08-03T16:19:54.722Z,9.98
2022-08-03T16:22:24.065Z,8.35
2022-08-03T16:24:53.473Z,9.07
2022-08-03T16:27:55.787Z,8.02
2022-08-03T16:30:12.714Z,13.85
2022-08-03T16:32:40.004Z,10.10
2022-08-03T16:35:08.710Z,9.75
2022-08-03T16:37:38.506Z,8.38
2022-08-03T16:40:17.376Z,9.13
2022-08-03T16:42:47.611Z,8.40
2022-08-03T16:45:15.013Z,7.97
2022-08-03T16:47:42.308Z,7.93
2022-08-03T16:50:15.761Z,9.63
2022-08-03T16:52:47.370Z,8.60
2022-08-03T16:55:18.369Z,8.32
2022-08-03T16:57:58.688Z,8.07
2022-08-03T17:00:33.815Z,9.15
2022-08-03T17:03:18.642Z,8.95
2022-08-03T17:05:49.925Z,10.35
2022-08-03T17:08:18.924Z,8.30
2022-08-03T17:10:53.866Z,8.27
2022-08-03T17:13:22.861Z,9.70
2022-08-03T17:15:58.067Z,8.25
2022-08-03T17:18:37.523Z,8.00
2022-08-03T17:21:11.309Z,7.15
2022-08-03T17:23:50.127Z,7.28
2022-08-03T17:26:22.285Z,7.88
2022-08-03T17:28:58.094Z,8.68
2022-08-03T17:31:31.605Z,8.00
2022-08-03T17:34:04.625Z,9.23
2022-08-03T17:37:03.111Z,11.98
2022-08-03T17:39:42.136Z,10.65
2022-08-03T17:42:30.959Z,9.10
2022-08-03T17:45:03.790Z,7.82
2022-08-03T17:47:42.087Z,9.52
2022-08-03T17:50:24.436Z,12.48
2022-08-03T17:53:15.355Z,10.70
2022-08-03T17:56:44.537Z,8.50
2022-08-03T17:59:57.829Z,19.70
2022-08-03T18:03:11.168Z,11.07
2022-08-03T18:06:10.846Z,8.30
2022-08-03T18:08:51.315Z,7.60
2022-08-03T18:11:35.694Z,7.97
2022-08-03T18:14:23.917Z,11.50
2022-08-03T18:17:03.308Z,8.65
2022-08-03T18:20:02.713Z,8.93
2022-08-03T18:22:27.030Z,9.25
2022-08-03T18:24:56.189Z,7.82
2022-08-03T18:27:25.150Z,8.85
2022-08-03T18:30:15.359Z,9.13
2022-08-03T18:33:01.125Z,10.80
2022-08-03T18:35:53.074Z,10.10
2022-08-03T18:38:23.784Z,8.82
2022-08-03T18:40:51.810Z,8.18
2022-08-03T18:43:21.123Z,8.55
2022-08-03T18:46:45.468Z,8.77
2022-08-03T18:49:52.653Z,8.15
2022-08-03T18:52:46.071Z,8.27
2022-08-03T18:55:35.476Z,8.07
2022-08-03T18:58:17.913Z,7.45
2022-08-03T19:02:00.361Z,7.43
2022-08-03T19:04:15.549Z,8.02
2022-08-03T19:06:48.302Z,7.60
2022-08-03T19:09:32.845Z,8.63
2022-08-03T19:12:12.335Z,7.40
2022-08-03T19:15:00.265Z,6.63
2022-08-03T19:17:32.355Z,6.88
2022-08-03T19:20:04.061Z,6.82
2022-08-03T19:22:33.624Z,7.25
2022-08-03T19:25:03.939Z,7.93
2022-08-03T19:27:33.191Z,8.68
2022-08-03T19:30:19.799Z,11.40
2022-08-03T19:32:55.082Z,8.93
2022-08-03T19:35:51.595Z,9.38
2022-08-03T19:38:11.448Z,9.43
2022-08-03T19:40:44.442Z,8.85
2022-08-03T19:43:53.856Z,8.68
2022-08-03T19:46:31.716Z,9.57
2022-08-03T19:49:15.069Z,12.38
2022-08-03T19:52:01.138Z,16.02
2022-08-03T19:54:54.083Z,14.50
2022-08-03T19:57:27.336Z,16.02
2022-08-03T19:59:57.260Z,13.52
2022-08-03T20:02:27.103Z,13.93
2022-08-03T20:04:59.938Z,17.67
2022-08-03T20:07:32.025Z,19.52
2022-08-03T20:10:02.595Z,28.00
2022-08-03T20:12:34.395Z,22.67
2022-08-03T20:15:07.901Z,18.67
2022-08-03T20:17:57.068Z,15.35
2022-08-03T20:20:34.314Z,19.65
2022-08-03T20:23:07.540Z,26.00
2022-08-03T20:25:48.767Z,21.50
2022-08-03T20:29:01.078Z,26.00
2022-08-03T20:31:37.691Z,23.80
2022-08-03T20:34:06.586Z,16.52
2022-08-03T20:36:33.973Z,17.40
2022-08-03T20:39:02.321Z,17.80
2022-08-03T20:41:35.498Z,15.25
2022-08-03T20:44:04.583Z,14.38
2022-08-03T20:46:44.119Z,13.93
2022-08-03T20:49:22.944Z,10.18
2022-08-03T20:51:53.321Z,8.30
2022-08-03T20:54:30.971Z,9.13
2022-08-03T20:57:14.274Z,9.38
2022-08-03T20:59:50.369Z,8.18
2022-08-03T21:02:29.976Z,8.13
2022-08-03T21:05:03.702Z,9.73
2022-08-03T21:08:06.418Z,7.38
2022-08-03T21:10:38.420Z,8.13
2022-08-03T21:13:30.390Z,7.82
2022-08-03T21:16:11.969Z,7.60
2022-08-03T21:18:50.586Z,6.82
2022-08-03T21:21:22.504Z,7.43
2022-08-03T21:23:55.277Z,7.72
2022-08-03T21:26:25.502Z,8.13
2022-08-03T21:28:56.756Z,7.53
2022-08-03T21:31:26.553Z,8.00
2022-08-03T21:34:01.506Z,7.85
2022-08-03T21:36:34.644Z,7.70
2022-08-03T21:39:07.025Z,7.38
2022-08-03T21:41:36.393Z,10.68
2022-08-03T21:44:05.626Z,7.80
2022-08-03T21:46:39.698Z,10.95
2022-08-03T21:50:02.660Z,8.45
2022-08-03T21:51:59.838Z,7.82
2022-08-03T21:54:49.129Z,9.82
2022-08-03T21:57:25.676Z,8.07
2022-08-03T22:00:07.164Z,8.60
2022-08-03T22:02:35.801Z,9.07
2022-08-03T22:05:04.764Z,12.57
2022-08-03T22:07:34.608Z,9.45
2022-08-03T22:10:07.623Z,10.30
2022-08-03T22:12:35.965Z,10.48
2022-08-03T22:15:08.481Z,9.82
2022-08-03T22:17:54.796Z,8.68
2022-08-03T22:20:25.276Z,11.65
2022-08-03T22:22:57.059Z,11.18
2022-08-03T22:25:34.325Z,10.88
2022-08-03T22:28:09.576Z,10.57
2022-08-03T22:30:38.918Z,11.18
2022-08-03T22:33:11.145Z,11.43
2022-08-03T22:35:50.419Z,10.82
2022-08-03T22:38:19.214Z,10.10
2022-08-03T22:40:50.994Z,9.50
2022-08-03T22:43:26.823Z,10.90
2022-08-03T22:46:09.803Z,11.00
2022-08-03T22:48:40.761Z,11.85
2022-08-03T22:51:09.963Z,12.00
2022-08-03T22:53:39.150Z,11.30
2022-08-03T22:56:07.809Z,9.95
2022-08-03T22:58:35.071Z,10.90
2022-08-03T23:01:14.975Z,10.68
2022-08-03T23:03:59.163Z,10.60
2022-08-03T23:06:35.699Z,10.10
2022-08-03T23:09:11.128Z,11.02
2022-08-03T23:11:46.029Z,10.23
2022-08-03T23:14:18.588Z,10.73
2022-08-03T23:16:53.165Z,9.85
2022-08-03T23:19:26.242Z,10.18
2022-08-03T23:22:02.239Z,9.27
2022-08-03T23:24:38.579Z,12.68
2022-08-03T23:27:09.258Z,9.02
2022-08-03T23:29:39.742Z,9.60
2022-08-03T23:32:10.124Z,10.23
2022-08-03T23:34:59.501Z,10.52
2022-08-03T23:37:27.054Z,11.07
2022-08-03T23:39:57.458Z,10.23
2022-08-03T23:42:25.728Z,10.35
2022-08-03T23:44:59.504Z,9.55
2022-08-03T23:47:46.879Z,8.63
2022-08-03T23:50:15.432Z,9.55
2022-08-03T23:52:56.437Z,9.90
2022-08-03T23:56:04.059Z,8.85
2022-08-03T23:59:01.202Z,10.48
